Flight Track Log - Related Links

Times and Time Zones

All times are in EDT time to prevent confusion due to time zone crossing. See the N832R flight status page for this flight to view local times or setup timezone preferences in your user account.

Time Position Orientation Groundspeed Altitude Reporting Facility
EDT Latitude Longitude Course Direction KTS MPH feet Rate Location/Type
Sun 12:46:06 PM 48.0150 -92.6928 122° Southeast 263 303 9,100  Level Minneapolis Center
Sun 12:47:08 PM 47.9747 -92.5961 122° Southeast 267 307 13,000 3,408 Climbing Minneapolis Center
Sun 12:48:11 PM 47.9267 -92.4994 127° Southeast 276 318 16,200 2,496 Climbing Minneapolis Center
Sun 12:49:25 PM 47.8686 -92.3939 129° Southeast 298 343 18,700 2,647 Climbing Minneapolis Center
Sun 12:50:27 PM 47.7608 -92.2469 137° Southeast 368 423 22,200 3,048 Climbing Minneapolis Center
Sun 12:51:29 PM 47.6761 -92.1486 142° Southeast 382 440 25,000 2,661 Climbing Minneapolis Center
Sun 12:52:31 PM 47.5900 -92.0469 141° Southeast 390 449 27,700 2,516 Climbing Minneapolis Center
Sun 12:53:33 PM 47.5067 -91.9472 141° Southeast 387 445 30,200 2,323 Climbing Minneapolis Center
Sun 12:54:35 PM 47.4214 -91.8483 142° Southeast 390 449 32,500 1,790 Climbing Minneapolis Center
Sun 12:55:37 PM 47.3536 -91.7672 141° Southeast 391 450 33,900 1,742 Climbing Minneapolis Center
Sun 12:56:39 PM 47.2322 -91.6256 142° Southeast 398 458 36,100 1,742 Climbing Minneapolis Center
Sun 12:57:41 PM 47.1433 -91.5264 143° Southeast 400 460 37,500 1,200 Climbing Minneapolis Center
Sun 12:58:44 PM 47.0575 -91.4272 142° Southeast 397 457 38,600 774 Climbing Minneapolis Center
Sun 12:59:45 PM 46.9864 -91.3467 142° Southeast 401 461 39,100 629 Climbing Minneapolis Center
Sun 01:00:48 PM 46.8789 -91.2258 142° Southeast 406 467 39,900 768 Climbing Minneapolis Center
Sun 01:01:50 PM 46.7864 -91.1236 143° Southeast 398 458 40,700 485 Climbing Minneapolis Center
Sun 01:03:04 PM 46.6978 -91.0233 142° Southeast 402 463 41,000 131 Climbing Minneapolis Center
Sun 01:04:07 PM 46.5683 -90.8806 143° Southeast 417 480 41,000  Level Minneapolis Center
Sun 01:05:09 PM 46.4739 -90.7750 142° Southeast 427 491 41,000  Level Minneapolis Center
Sun 01:06:11 PM 46.3806 -90.6689 142° Southeast 427 491 41,000  Level Minneapolis Center
Sun 01:07:13 PM 46.2831 -90.5625 143° Southeast 434 499 41,000  Level Minneapolis Center
Sun 01:08:15 PM 46.1864 -90.4556 143° Southeast 438 504 41,000  Level Minneapolis Center
Sun 01:09:17 PM 46.0881 -90.3486 143° Southeast 442 509 41,000  Level Minneapolis Center
Sun 01:10:19 PM 45.9700 -90.2208 143° Southeast 445 512 41,000  Level Minneapolis Center
Sun 01:11:21 PM 45.8706 -90.1125 143° Southeast 449 517 41,000  Level Minneapolis Center
Sun 01:12:23 PM 45.7714 -90.0056 143° Southeast 449 517 41,000  Level Minneapolis Center
Sun 01:13:25 PM 45.6719 -89.8986 143° Southeast 451 519 41,000  Level Minneapolis Center
Sun 01:14:27 PM 45.5733 -89.7931 143° Southeast 448 516 41,000  Level Minneapolis Center
Sun 01:15:29 PM 45.4553 -89.6678 143° Southeast 444 511 41,000  Level Minneapolis Center
Sun 01:16:31 PM 45.3567 -89.5631 143° Southeast 444 511 41,000  Level Minneapolis Center
Sun 01:17:33 PM 45.2581 -89.4589 143° Southeast 443 510 41,000  Level Minneapolis Center
Sun 01:18:36 PM 45.1594 -89.3553 143° Southeast 442 509 41,000  Level Minneapolis Center
Sun 01:19:38 PM 45.0589 -89.2508 144° Southeast 444 511 41,000  Level Minneapolis Center
Sun 01:20:40 PM 44.9436 -89.1303 143° Southeast 443 510 41,000  Level Minneapolis Center
Sun 01:21:54 PM 44.8442 -89.0256 143° Southeast 444 511 41,000  Level Minneapolis Center
Sun 01:22:56 PM 44.7281 -88.9075 144° Southeast 441 507 41,000  Level Minneapolis Center
Sun 01:23:58 PM 44.6292 -88.8036 143° Southeast 442 509 41,000  Level Minneapolis Center
Sun 01:25:00 PM 44.5117 -88.6850 144° Southeast 443 510 41,000  Level Minneapolis Center
Sun 01:26:14 PM 44.4117 -88.5822 144° Southeast 444 511 41,000  Level Minneapolis Center
Sun 01:27:17 PM 44.2944 -88.4653 144° Southeast 443 510 41,000  Level Minneapolis Center
Sun 01:28:19 PM 44.1953 -88.3653 144° Southeast 441 507 41,000  Level Minneapolis Center
Sun 01:29:11 PM 44.1131 -88.2822 144° Southeast 438 504 41,000  Level Chicago Center
Sun 01:30:13 PM 43.9983 -88.1681 144° Southeast 433 498 41,000  Level Chicago Center
Sun 01:31:25 PM 43.8828 -88.0539 145° Southeast 433 498 41,000  Level Minneapolis Center
Sun 01:32:17 PM 43.8014 -87.9725 144° Southeast 433 498 41,000  Level Chicago Center
Sun 01:33:19 PM 43.7014 -87.8739 145° Southeast 436 502 41,000 -532 Level Chicago Center
Sun 01:34:21 PM 43.5997 -87.7758 145° Southeast 442 509 39,900 -1,258 Descending Chicago Center
Sun 01:35:23 PM 43.4947 -87.6719 144° Southeast 457 526 38,400 -1,536 Descending Chicago Center
Sun 01:36:26 PM 43.3675 -87.5497 145° Southeast 474 545 36,700 -1,632 Descending Chicago Center
Sun 01:37:28 PM 43.2650 -87.4511 145° Southeast 454 522 35,000 -1,403 Descending Chicago Center
Sun 01:38:30 PM 43.1706 -87.3592 145° Southeast 435 501 33,800 -1,500 Descending Chicago Center
Sun 01:39:32 PM 43.0681 -87.2597 145° Southeast 448 516 31,900 -1,742 Descending Chicago Center
Sun 01:40:34 PM 42.9628 -87.1586 145° Southeast 461 531 30,200 -1,742 Descending Chicago Center
Sun 01:41:36 PM 42.8561 -87.0586 145° Southeast 466 536 28,300 -2,032 Descending Chicago Center
Sun 01:42:38 PM 42.7297 -86.9422 146° Southeast 461 531 26,000 -2,226 Descending Chicago Center
Sun 01:43:40 PM 42.6297 -86.8481 145° Southeast 444 511 23,700 -2,468 Descending Chicago Center
Sun 01:44:42 PM 42.5233 -86.7444 144° Southeast 423 487 20,900 -2,419 Descending Chicago Center
Sun 01:45:44 PM 42.4403 -86.6678 146° Southeast 419 482 18,700 -2,177 Descending Chicago Center
Sun 01:46:46 PM 42.3492 -86.5836 146° Southeast 403 464 16,400 -2,323 Descending Chicago Center
Sun 01:47:48 PM 42.2567 -86.4986 146° Southeast 384 442 13,900 -2,032 Descending Chicago Center
Sun 01:48:50 PM 42.1556 -86.4050 146° Southeast 368 423 12,200 -960 Descending Chicago Center
Sun 01:49:53 PM 42.0781 -86.3325 145° Southeast 343 395 11,900 -864 Descending Chicago Center
Sun 01:50:55 PM 42.0025 -86.2628 146° Southeast 333 383 10,400 -1,742 Descending Chicago Center
Sun 01:51:57 PM 41.9342 -86.2008 146° Southeast 302 348 8,300 -2,081 Descending Chicago Center
Sun 01:52:59 PM 41.8722 -86.1444 146° Southeast 275 316 6,100 -1,984 Descending Chicago Center
Sun 01:54:01 PM 41.8133 -86.0914 146° Southeast 260 299 4,200 -1,597 Descending Chicago Center
Sun 01:55:03 PM 41.7639 -86.0233 134° Southeast 234 269 2,800 -1,016 Descending Chicago Center
Sun 01:56:05 PM 41.7558 -85.9594 100° East 200 230 2,100 -726 Descending Chicago Center
Sun 01:57:07 PM 41.7208 -85.9658 188° South 159 183 1,300 -532 Descending Chicago Center
Sun 01:58:09 PM 41.7228 -86.0058 274° West 144 166 1,000 -290 Descending Chicago Center
Sun 02:00:00 PM 41.7167 -86.0000 143° Southeast  Level FlightAware Approximate

Login

Don't have an account? Register now (free) for customized features, flight alerts, and more!